createdAt,value
2023-01-03T00:02:25.129Z,6.40
2023-01-03T00:04:51.947Z,6.40
2023-01-03T00:07:18.749Z,6.40
2023-01-03T00:09:45.538Z,6.40
2023-01-03T00:12:12.352Z,6.50
2023-01-03T00:14:41.943Z,6.40
2023-01-03T00:17:10.166Z,6.40
2023-01-03T00:19:39.441Z,6.40
2023-01-03T00:22:06.286Z,6.40
2023-01-03T00:24:33.662Z,6.40
2023-01-03T00:27:00.907Z,6.40
2023-01-03T00:29:27.936Z,6.40
2023-01-03T00:31:54.709Z,6.30
2023-01-03T00:37:08.203Z,6.40
2023-01-03T00:39:34.927Z,6.30
2023-01-03T00:44:48.626Z,6.30
2023-01-03T00:47:15.646Z,6.30
2023-01-03T00:49:42.399Z,6.20
2023-01-03T00:52:09.190Z,6.20
2023-01-03T00:54:36.698Z,6.20
2023-01-03T00:57:03.624Z,6.20
2023-01-03T00:59:30.423Z,6.20
2023-01-03T01:01:57.794Z,6.20
2023-01-03T01:04:30.332Z,6.20
2023-01-03T01:07:03.564Z,6.30
2023-01-03T01:09:35.046Z,6.30
2023-01-03T01:12:02.756Z,6.30
2023-01-03T01:14:31.025Z,6.30
2023-01-03T01:17:03.385Z,6.30
2023-01-03T01:19:42.009Z,6.20
2023-01-03T01:22:09.663Z,6.30
2023-01-03T01:24:36.588Z,6.20
2023-01-03T01:29:50.546Z,6.20
2023-01-03T01:35:04.347Z,6.20
2023-01-03T01:40:19.137Z,6.10
2023-01-03T01:45:32.772Z,6.10
2023-01-03T01:48:10.260Z,6.00
2023-01-03T01:50:47.611Z,6.00
2023-01-03T01:56:18.979Z,6.00
2023-01-03T01:58:48.659Z,5.90
2023-01-03T02:01:17.405Z,5.90
2023-01-03T02:03:48.007Z,5.80
2023-01-03T02:06:16.825Z,5.80
2023-01-03T02:08:43.667Z,5.80
2023-01-03T02:11:51.782Z,5.70
2023-01-03T02:14:40.018Z,5.70
2023-01-03T02:17:20.466Z,5.70
2023-01-03T02:20:08.527Z,5.60
2023-01-03T02:26:06.954Z,5.50
2023-01-03T02:29:01.724Z,5.40
2023-01-03T02:31:48.715Z,5.40
2023-01-03T02:40:37.552Z,5.20
2023-01-03T02:43:42.859Z,5.20
2023-01-03T02:46:16.839Z,5.10
2023-01-03T02:48:53.638Z,5.10
2023-01-03T02:51:29.415Z,4.90
2023-01-03T02:53:58.524Z,4.90
2023-01-03T02:59:12.458Z,4.80
2023-01-03T03:01:42.196Z,4.80
2023-01-03T03:04:09.143Z,4.70
2023-01-03T03:09:56.751Z,4.60
2023-01-03T03:15:15.791Z,4.60
2023-01-03T03:20:31.050Z,4.50
2023-01-03T03:25:54.854Z,4.40
2023-01-03T03:28:27.107Z,4.30
2023-01-03T03:30:59.225Z,4.30
2023-01-03T03:36:22.688Z,4.30
2023-01-03T03:38:50.101Z,4.30
2023-01-03T03:41:26.104Z,4.30
2023-01-03T03:46:55.481Z,4.20
2023-01-03T03:52:21.847Z,4.20
2023-01-03T03:54:58.395Z,4.20
2023-01-03T03:57:39.284Z,4.10
2023-01-03T04:00:11.958Z,4.00
2023-01-03T04:02:40.217Z,4.00
2023-01-03T04:07:57.829Z,4.00
2023-01-03T04:13:11.675Z,3.90
2023-01-03T04:15:38.457Z,3.90
2023-01-03T04:18:05.296Z,3.80
2023-01-03T04:20:32.093Z,3.80
2023-01-03T04:22:58.879Z,3.80
2023-01-03T04:25:25.688Z,3.80
2023-01-03T04:27:52.475Z,3.80
2023-01-03T04:30:19.270Z,3.80
2023-01-03T04:32:46.088Z,3.80
2023-01-03T04:35:12.837Z,3.70
2023-01-03T04:37:39.596Z,3.70
2023-01-03T04:40:06.825Z,3.60
2023-01-03T04:42:33.624Z,3.70
2023-01-03T04:45:00.465Z,3.60
2023-01-03T04:47:27.262Z,3.70
2023-01-03T04:49:54.025Z,3.60
2023-01-03T04:52:20.769Z,3.60
2023-01-03T04:57:34.171Z,3.50
2023-01-03T05:02:47.588Z,3.50
2023-01-03T05:05:14.401Z,3.40
2023-01-03T05:07:41.134Z,3.50
2023-01-03T05:10:08.253Z,3.50
2023-01-03T05:12:35.007Z,3.50
2023-01-03T05:15:01.799Z,3.50
2023-01-03T05:17:28.575Z,3.50
2023-01-03T05:19:55.355Z,3.50
2023-01-03T05:22:22.458Z,3.50
2023-01-03T05:24:49.194Z,3.50
2023-01-03T05:27:15.963Z,3.50
2023-01-03T05:29:42.733Z,3.50
2023-01-03T05:32:09.567Z,3.40
2023-01-03T05:34:36.365Z,3.40
2023-01-03T05:37:03.290Z,3.40
2023-01-03T05:39:30.028Z,3.40
2023-01-03T05:41:56.791Z,3.30
2023-01-03T05:44:23.741Z,3.30
2023-01-03T05:46:50.883Z,3.40
2023-01-03T05:49:18.099Z,3.40
2023-01-03T05:51:44.985Z,3.40
2023-01-03T05:54:16.488Z,3.40
2023-01-03T05:56:43.333Z,3.40
2023-01-03T05:59:10.898Z,3.40
2023-01-03T06:01:38.557Z,3.40
2023-01-03T06:04:05.370Z,3.40
2023-01-03T06:06:32.167Z,3.40
2023-01-03T06:09:00.140Z,3.50
2023-01-03T06:11:26.979Z,3.50
2023-01-03T06:13:54.023Z,3.50
2023-01-03T06:16:24.635Z,3.60
2023-01-03T06:18:51.862Z,3.60
2023-01-03T06:21:19.320Z,3.60
2023-01-03T06:23:46.389Z,3.50
2023-01-03T06:26:14.515Z,3.50
2023-01-03T06:28:42.056Z,3.50
2023-01-03T06:31:09.832Z,3.40
2023-01-03T06:33:36.939Z,3.40
2023-01-03T06:36:08.849Z,3.40
2023-01-03T06:38:36.537Z,3.40
2023-01-03T06:41:04.036Z,3.30
2023-01-03T06:43:31.187Z,3.30
2023-01-03T06:45:59.678Z,3.30
2023-01-03T06:48:26.448Z,3.30
2023-01-03T06:50:53.447Z,3.20
2023-01-03T06:53:23.778Z,3.20
2023-01-03T06:55:56.723Z,3.20
2023-01-03T06:58:24.030Z,3.10
2023-01-03T07:00:50.831Z,3.10
2023-01-03T07:03:17.635Z,3.10
2023-01-03T07:05:44.391Z,3.00
2023-01-03T07:08:11.171Z,3.00
2023-01-03T07:10:37.944Z,3.00
2023-01-03T07:13:04.712Z,3.00
2023-01-03T07:15:31.523Z,3.00
2023-01-03T07:17:58.354Z,3.00
2023-01-03T07:20:25.108Z,3.00
2023-01-03T07:22:52.910Z,2.90
2023-01-03T07:25:19.924Z,2.90
2023-01-03T07:30:45.751Z,2.80
2023-01-03T07:36:11.498Z,2.80
2023-01-03T07:38:40.369Z,2.80
2023-01-03T07:41:07.506Z,2.70
2023-01-03T07:43:36.038Z,2.80
2023-01-03T07:46:15.288Z,2.80
2023-01-03T07:48:43.027Z,2.80
2023-01-03T07:53:58.075Z,2.70
2023-01-03T07:59:11.539Z,2.70
2023-01-03T08:01:38.359Z,2.60
2023-01-03T08:04:05.150Z,2.30
2023-01-03T08:06:33.330Z,2.80
2023-01-03T08:09:05.953Z,2.80
2023-01-03T08:11:33.061Z,2.90
2023-01-03T08:14:00.368Z,3.10
2023-01-03T08:16:27.308Z,2.90
2023-01-03T08:18:55.046Z,3.00
2023-01-03T08:21:21.814Z,3.00
2023-01-03T08:23:48.583Z,3.20
2023-01-03T08:26:16.983Z,3.60
2023-01-03T08:28:44.846Z,3.90
2023-01-03T08:31:22.455Z,4.20
2023-01-03T08:33:55.286Z,4.50
2023-01-03T08:36:23.599Z,4.50
2023-01-03T08:39:08.205Z,4.70
2023-01-03T08:41:41.522Z,4.80
2023-01-03T08:47:00.291Z,4.90
2023-01-03T08:52:14.012Z,4.80
2023-01-03T08:54:40.920Z,4.90
2023-01-03T08:57:07.666Z,4.90
2023-01-03T08:59:34.396Z,4.90
2023-01-03T09:02:02.219Z,4.90
2023-01-03T09:04:29.193Z,5.10
2023-01-03T09:06:55.947Z,5.10
2023-01-03T09:09:22.863Z,5.10
2023-01-03T09:11:49.846Z,5.10
2023-01-03T09:14:16.733Z,5.30
2023-01-03T09:16:48.692Z,5.30
2023-01-03T09:22:02.839Z,5.40
2023-01-03T09:24:29.593Z,5.70
2023-01-03T09:26:56.490Z,5.50
2023-01-03T09:29:23.563Z,5.50
2023-01-03T09:31:51.472Z,5.60
2023-01-03T09:34:18.807Z,5.70
2023-01-03T09:36:45.536Z,5.80
2023-01-03T09:39:12.288Z,6.00
2023-01-03T09:41:39.991Z,6.10
2023-01-03T09:44:08.724Z,6.30
2023-01-03T09:46:37.234Z,6.40
2023-01-03T09:49:06.328Z,6.50
2023-01-03T09:51:42.702Z,6.80
2023-01-03T09:54:14.749Z,6.80
2023-01-03T09:56:41.593Z,6.90
2023-01-03T09:59:16.617Z,7.10
2023-01-03T10:02:01.600Z,7.30
2023-01-03T10:04:59.404Z,7.70
2023-01-03T10:07:47.485Z,7.60
2023-01-03T10:10:44.864Z,8.00
2023-01-03T10:13:37.668Z,8.30
2023-01-03T10:16:25.824Z,8.20
2023-01-03T10:19:16.713Z,8.50
2023-01-03T10:21:43.439Z,9.00
2023-01-03T10:24:29.068Z,9.40
2023-01-03T10:27:08.442Z,9.20
2023-01-03T10:29:35.678Z,9.30
2023-01-03T10:32:29.726Z,9.70
2023-01-03T10:35:15.452Z,9.50
2023-01-03T10:37:42.488Z,9.70
2023-01-03T10:40:10.238Z,10.00
2023-01-03T10:42:40.037Z,10.50
2023-01-03T10:48:14.281Z,10.90
2023-01-03T10:53:29.017Z,11.10
2023-01-03T10:55:58.057Z,11.00
2023-01-03T10:58:34.117Z,10.30
2023-01-03T11:04:13.228Z,11.20
2023-01-03T11:07:03.986Z,11.30
2023-01-03T11:12:42.271Z,11.50
2023-01-03T11:18:06.458Z,11.60
2023-01-03T11:20:46.001Z,12.10
2023-01-03T11:23:21.585Z,11.80
2023-01-03T11:26:04.273Z,12.20
2023-01-03T11:29:09.105Z,12.20
2023-01-03T11:31:46.803Z,12.50
2023-01-03T11:35:20.223Z,12.30
2023-01-03T11:38:07.453Z,12.40
2023-01-03T11:41:00.725Z,12.80
2023-01-03T11:46:53.159Z,12.50
2023-01-03T11:50:02.202Z,12.70
2023-01-03T11:52:45.338Z,12.90
2023-01-03T11:55:49.726Z,13.40
2023-01-03T11:58:28.270Z,13.60
2023-01-03T12:01:14.262Z,13.00
2023-01-03T12:03:59.815Z,13.80
2023-01-03T12:06:38.992Z,13.60
2023-01-03T12:09:25.458Z,13.00
2023-01-03T12:12:16.997Z,13.40
2023-01-03T12:14:57.771Z,13.40
2023-01-03T12:17:46.833Z,13.70
2023-01-03T12:23:33.990Z,13.30
2023-01-03T12:26:05.957Z,13.50
2023-01-03T12:28:40.153Z,13.90
2023-01-03T12:31:25.027Z,13.10
2023-01-03T12:34:00.668Z,13.60
2023-01-03T12:36:51.165Z,13.30
2023-01-03T12:42:16.048Z,11.70
2023-01-03T12:44:45.329Z,11.60
2023-01-03T12:47:34.607Z,11.10
2023-01-03T12:53:20.320Z,10.20
2023-01-03T12:56:14.573Z,10.00
2023-01-03T12:59:05.475Z,9.80
2023-01-03T13:01:44.272Z,9.70
2023-01-03T13:04:23.372Z,9.40
2023-01-03T13:07:00.132Z,9.60
2023-01-03T13:09:32.005Z,9.60
2023-01-03T13:12:07.682Z,9.30
2023-01-03T13:14:54.302Z,8.80
2023-01-03T13:17:28.439Z,8.90
2023-01-03T13:19:55.177Z,8.90
2023-01-03T13:22:35.804Z,8.70
2023-01-03T13:25:31.839Z,8.50
2023-01-03T13:28:05.660Z,8.70
2023-01-03T13:30:36.017Z,8.20
2023-01-03T13:33:12.049Z,7.90
2023-01-03T13:35:44.794Z,7.80
2023-01-03T13:38:33.404Z,7.60
2023-01-03T13:44:20.258Z,7.50
2023-01-03T13:46:49.913Z,7.40
2023-01-03T13:49:25.984Z,7.20
2023-01-03T13:51:58.375Z,7.10
2023-01-03T13:54:58.143Z,7.10
2023-01-03T13:57:31.830Z,7.10
2023-01-03T14:00:01.871Z,7.00
2023-01-03T14:02:31.579Z,6.90
2023-01-03T14:05:13.574Z,6.90
2023-01-03T14:08:09.732Z,6.80
2023-01-03T14:10:55.045Z,6.80
2023-01-03T14:13:43.082Z,6.80
2023-01-03T14:16:23.543Z,6.70
2023-01-03T14:19:25.904Z,6.60
2023-01-03T14:22:26.730Z,6.50
2023-01-03T14:24:53.433Z,6.40
2023-01-03T14:27:23.175Z,6.30
2023-01-03T14:29:55.540Z,6.20
2023-01-03T14:32:34.679Z,6.10
2023-01-03T14:35:02.590Z,6.00
2023-01-03T14:37:29.440Z,6.00
2023-01-03T14:39:58.428Z,6.00
2023-01-03T14:42:25.921Z,5.90
2023-01-03T14:44:59.591Z,5.80
2023-01-03T14:50:26.569Z,5.60
2023-01-03T14:55:54.324Z,5.30
2023-01-03T14:58:34.861Z,5.20
2023-01-03T15:01:05.097Z,5.10
2023-01-03T15:03:36.033Z,5.10
2023-01-03T15:06:26.333Z,5.00
2023-01-03T15:08:56.532Z,4.90
2023-01-03T15:11:39.105Z,4.80
2023-01-03T15:14:07.003Z,4.60
2023-01-03T15:16:38.033Z,4.40
2023-01-03T15:19:20.748Z,4.30
2023-01-03T15:21:47.899Z,4.10
2023-01-03T15:24:20.923Z,4.00
2023-01-03T15:26:52.689Z,3.90
2023-01-03T15:29:24.961Z,3.90
2023-01-03T15:31:58.170Z,3.80
2023-01-03T15:34:34.309Z,3.90
2023-01-03T15:37:14.583Z,3.80
2023-01-03T15:40:03.030Z,3.80
2023-01-03T15:42:44.521Z,3.70
2023-01-03T15:45:17.543Z,3.70
2023-01-03T15:47:44.630Z,3.50
2023-01-03T15:50:15.811Z,3.50
2023-01-03T15:52:42.605Z,3.50
2023-01-03T15:55:13.211Z,3.50
2023-01-03T15:57:40.351Z,3.40
2023-01-03T16:00:10.165Z,3.40
2023-01-03T16:02:37.209Z,3.20
2023-01-03T16:05:04.279Z,3.10
2023-01-03T16:07:31.037Z,3.10
2023-01-03T16:09:57.771Z,3.00
2023-01-03T16:12:35.228Z,3.10
2023-01-03T16:15:04.496Z,3.10
2023-01-03T16:17:32.327Z,3.20
2023-01-03T16:20:00.391Z,3.30
2023-01-03T16:22:37.008Z,3.30
2023-01-03T16:25:06.989Z,3.20
2023-01-03T16:27:33.945Z,3.20
2023-01-03T16:30:00.791Z,3.10
2023-01-03T16:32:30.836Z,3.10
2023-01-03T16:35:00.935Z,3.30
2023-01-03T16:37:28.068Z,3.20
2023-01-03T16:39:55.238Z,3.30
2023-01-03T16:42:22.811Z,3.20
2023-01-03T16:44:49.558Z,3.20
2023-01-03T16:47:21.170Z,3.30
2023-01-03T16:49:54.416Z,3.40
2023-01-03T16:52:25.826Z,3.50
2023-01-03T16:54:54.276Z,3.40
2023-01-03T16:57:22.385Z,3.50
2023-01-03T16:59:49.392Z,3.60
2023-01-03T17:05:02.879Z,3.70
2023-01-03T17:07:29.695Z,3.70
2023-01-03T17:12:43.515Z,3.80
2023-01-03T17:15:11.416Z,3.80
2023-01-03T17:17:40.902Z,3.90
2023-01-03T17:20:19.083Z,3.90
2023-01-03T17:22:54.187Z,4.00
2023-01-03T17:25:21.263Z,4.00
2023-01-03T17:27:52.671Z,4.00
2023-01-03T17:30:23.271Z,4.10
2023-01-03T17:32:50.153Z,4.10
2023-01-03T17:35:17.786Z,4.10
2023-01-03T17:38:23.526Z,4.10
2023-01-03T17:40:34.333Z,4.10
2023-01-03T17:43:02.296Z,4.10
2023-01-03T17:45:29.404Z,4.10
2023-01-03T17:47:56.432Z,4.00
2023-01-03T17:50:24.003Z,4.00
2023-01-03T17:52:55.694Z,4.00
2023-01-03T17:58:22.175Z,4.00
2023-01-03T18:03:36.557Z,4.10
2023-01-03T18:06:18.760Z,4.00
2023-01-03T18:11:33.430Z,3.90
2023-01-03T18:14:00.381Z,3.90
2023-01-03T18:16:27.236Z,3.90
2023-01-03T18:18:54.435Z,3.90
2023-01-03T18:21:24.006Z,4.00
2023-01-03T18:23:59.608Z,4.00
2023-01-03T18:26:37.328Z,4.00
2023-01-03T18:29:06.023Z,4.00
2023-01-03T18:31:33.157Z,3.90
2023-01-03T18:34:00.154Z,3.90
2023-01-03T18:36:29.228Z,4.00
2023-01-03T18:39:27.097Z,4.00
2023-01-03T18:41:55.327Z,4.00
2023-01-03T18:44:25.567Z,4.00
2023-01-03T18:46:52.599Z,3.90
2023-01-03T18:49:19.746Z,3.90
2023-01-03T18:51:49.047Z,3.90
2023-01-03T18:57:06.376Z,3.80
2023-01-03T18:59:33.274Z,3.70
2023-01-03T19:02:00.290Z,3.70
2023-01-03T19:04:31.476Z,3.70
2023-01-03T19:06:58.522Z,3.70
2023-01-03T19:09:28.419Z,3.70
2023-01-03T19:11:55.911Z,3.70
2023-01-03T19:17:17.983Z,3.80
2023-01-03T19:22:31.811Z,3.80
2023-01-03T19:27:49.979Z,3.80
2023-01-03T19:30:37.018Z,3.80
2023-01-03T19:33:05.999Z,3.80
2023-01-03T19:38:19.692Z,3.70
2023-01-03T19:43:33.631Z,3.60
2023-01-03T19:46:00.686Z,3.60
2023-01-03T19:48:27.649Z,3.60
2023-01-03T19:50:54.442Z,3.50
2023-01-03T19:53:21.365Z,3.50
2023-01-03T19:55:50.386Z,3.50
2023-01-03T19:58:30.501Z,3.50
2023-01-03T20:00:57.653Z,3.50
2023-01-03T20:06:21.667Z,3.40
2023-01-03T20:08:48.416Z,3.50
2023-01-03T20:11:23.215Z,3.50
2023-01-03T20:13:50.028Z,3.50
2023-01-03T20:18:44.765Z,3.40
2023-01-03T20:21:19.828Z,3.50
2023-01-03T20:23:52.378Z,3.40
2023-01-03T20:29:11.213Z,3.50
2023-01-03T20:34:24.629Z,3.60
2023-01-03T20:36:51.429Z,3.70
2023-01-03T20:39:44.680Z,3.70
2023-01-03T20:42:21.384Z,3.70
2023-01-03T20:44:48.406Z,3.80
2023-01-03T20:47:15.443Z,3.80
2023-01-03T20:49:43.085Z,3.80
2023-01-03T20:55:04.456Z,3.80
2023-01-03T20:57:31.380Z,3.80
2023-01-03T20:59:58.177Z,3.80
2023-01-03T21:02:25.226Z,3.80
2023-01-03T21:04:52.149Z,3.90
2023-01-03T21:07:30.128Z,3.90
2023-01-03T21:09:57.188Z,3.90
2023-01-03T21:12:23.995Z,3.90
2023-01-03T21:17:37.560Z,3.90
2023-01-03T21:22:52.051Z,3.90
2023-01-03T21:28:05.639Z,3.90
2023-01-03T21:30:33.100Z,3.90
2023-01-03T21:33:00.000Z,3.90
2023-01-03T21:35:27.291Z,4.00
2023-01-03T21:37:54.720Z,4.00
2023-01-03T21:40:24.306Z,4.00
2023-01-03T21:42:55.936Z,4.00
2023-01-03T21:48:15.659Z,4.00
2023-01-03T21:50:47.232Z,4.00
2023-01-03T21:53:16.848Z,4.10
2023-01-03T21:55:43.822Z,4.10
2023-01-03T21:58:14.795Z,4.10
2023-01-03T22:00:42.008Z,4.10
2023-01-03T22:03:13.561Z,4.20
2023-01-03T22:05:40.396Z,4.20
2023-01-03T22:08:07.175Z,4.20
2023-01-03T22:10:34.416Z,4.20
2023-01-03T22:13:04.824Z,4.20
2023-01-03T22:15:31.727Z,4.20
2023-01-03T22:17:58.488Z,4.10
2023-01-03T22:20:26.412Z,4.10
2023-01-03T22:22:54.141Z,4.10
2023-01-03T22:25:23.451Z,4.10
2023-01-03T22:27:53.346Z,4.10
2023-01-03T22:30:20.515Z,4.10
2023-01-03T22:32:47.997Z,4.10
2023-01-03T22:35:17.257Z,4.20
2023-01-03T22:37:44.162Z,4.20
2023-01-03T22:40:12.817Z,4.20
2023-01-03T22:42:39.681Z,4.20
2023-01-03T22:45:08.327Z,4.20
2023-01-03T22:47:36.551Z,4.30
2023-01-03T22:50:04.682Z,4.30
2023-01-03T22:52:31.486Z,4.20
2023-01-03T22:54:58.620Z,4.40
2023-01-03T22:57:25.423Z,4.40
2023-01-03T22:59:52.329Z,4.40
2023-01-03T23:02:23.139Z,4.40
2023-01-03T23:07:39.658Z,4.60
2023-01-03T23:10:07.117Z,4.60
2023-01-03T23:12:33.853Z,4.60
2023-01-03T23:15:00.602Z,4.70
2023-01-03T23:17:27.521Z,4.60
2023-01-03T23:19:54.389Z,4.70
2023-01-03T23:22:21.170Z,4.70
2023-01-03T23:24:47.963Z,4.80
2023-01-03T23:27:14.992Z,4.80
2023-01-03T23:32:29.088Z,4.80
2023-01-03T23:37:42.450Z,4.90
2023-01-03T23:40:10.118Z,4.90
2023-01-03T23:42:36.906Z,4.90
2023-01-03T23:45:04.469Z,5.00
2023-01-03T23:47:31.318Z,4.90
2023-01-03T23:49:58.219Z,5.00
2023-01-03T23:52:25.028Z,5.00
2023-01-03T23:54:57.953Z,5.10
